Time;durP1;ratioP1;P1;durP2;ratioP2;P2;SDS_P1;SDS_P2;PMS_P1;PMS_P2;Temp;Humidity;BMP_temperature;BMP_pressure;BME280_temperature;BME280_humidity;BME280_pressure;Samples;Min_cycle;Max_cycle;Signal;HPM_P1;HPM_P2
2022/07/20 00:01:54;;;;;;;;;15.00;14.20;;;;;25.74;29.37;99793.34;5107292;28;8868;-74
2022/07/20 00:04:23;;;;;;;;;10.40;10.00;;;;;25.68;30.05;99791.03;5107328;28;8863;-77
2022/07/20 00:06:51;;;;;;;;;11.40;11.40;;;;;25.70;30.04;99793.63;5121545;27;8842;-76
2022/07/20 00:12:08;;;;;;;;;14.40;14.40;;;;;25.65;29.69;99788.53;5119681;27;8833;-75
2022/07/20 00:14:37;;;;;;;;;9.20;9.00;;;;;25.65;29.28;99792.09;5093920;28;8827;-76
2022/07/20 00:17:05;;;;;;;;;12.40;10.20;;;;;25.62;29.51;99791.41;5089378;28;8890;-76
2022/07/20 00:19:34;;;;;;;;;10.80;10.80;;;;;25.58;29.80;99793.41;5087452;28;8852;-75
2022/07/20 00:22:02;;;;;;;;;10.40;10.40;;;;;25.53;29.20;99797.28;5088459;28;8851;-76
2022/07/20 00:24:31;;;;;;;;;9.80;9.80;;;;;25.32;29.73;99791.38;5088697;28;8859;-76
2022/07/20 00:26:59;;;;;;;;;11.60;10.20;;;;;25.17;30.20;99793.09;5088100;28;8982;-75
2022/07/20 00:29:30;;;;;;;;;9.40;9.40;;;;;25.02;30.01;99784.16;5071023;28;8848;-75
2022/07/20 00:31:58;;;;;;;;;11.00;9.80;;;;;25.08;30.53;99789.13;5087179;28;8856;-75
2022/07/20 00:34:27;;;;;;;;;13.60;11.80;;;;;25.09;30.61;99786.38;5088818;28;8942;-77
2022/07/20 00:36:55;;;;;;;;;9.20;8.00;;;;;25.12;30.32;99781.81;5070108;28;8858;-75
2022/07/20 00:39:24;;;;;;;;;8.00;8.00;;;;;25.13;29.95;99781.72;5088678;28;8842;-74
2022/07/20 00:41:52;;;;;;;;;10.00;9.80;;;;;25.09;28.83;99789.03;5107715;28;8964;-76
2022/07/20 00:44:27;;;;;;;;;9.60;9.60;;;;;25.08;29.16;99784.69;5109452;28;9567;-76
2022/07/20 00:46:57;;;;;;;;;7.20;7.20;;;;;25.08;28.88;99786.47;5093426;28;8847;-76
2022/07/20 00:49:26;;;;;;;;;9.80;9.80;;;;;25.09;28.65;99791.72;5053255;28;8917;-75
2022/07/20 00:51:54;;;;;;;;;9.80;9.40;;;;;25.07;29.03;99784.75;5088471;28;8852;-77
2022/07/20 00:54:24;;;;;;;;;11.20;11.20;;;;;25.09;28.67;99782.84;5037128;28;8859;-76
2022/07/20 00:56:53;;;;;;;;;8.00;8.00;;;;;25.13;29.05;99787.06;5088932;28;8996;-79
2022/07/20 00:59:22;;;;;;;;;9.40;9.20;;;;;25.13;29.07;99780.88;5089124;28;8894;-75
2022/07/20 01:01:50;;;;;;;;;9.80;9.80;;;;;25.14;29.56;99778.13;5099716;28;8856;-75
2022/07/20 01:04:21;;;;;;;;;10.60;10.60;;;;;25.13;30.29;99779.06;5107958;28;8841;-76
2022/07/20 01:06:50;;;;;;;;;11.60;11.60;;;;;25.08;30.13;99778.44;5108892;28;8829;-76
2022/07/20 01:09:20;;;;;;;;;11.60;10.80;;;;;25.06;30.39;99777.69;5107607;28;8879;-76
2022/07/20 01:11:49;;;;;;;;;10.20;10.00;;;;;25.05;30.83;99781.31;5103399;28;8859;-77
2022/07/20 01:14:17;;;;;;;;;10.60;9.80;;;;;25.05;31.02;99792.00;5087531;28;9006;-76
2022/07/20 01:16:46;;;;;;;;;10.20;9.60;;;;;25.04;31.25;99792.91;5088636;28;8856;-76
2022/07/20 01:19:14;;;;;;;;;11.40;11.00;;;;;25.03;31.75;99796.56;5087224;28;8993;-75
2022/07/20 01:21:44;;;;;;;;;14.00;12.20;;;;;25.01;30.30;99793.09;5088444;28;9582;-75
2022/07/20 01:24:14;;;;;;;;;10.40;10.40;;;;;25.00;30.18;99794.91;5087060;28;8867;-75
2022/07/20 01:26:44;;;;;;;;;12.00;11.20;;;;;24.98;30.30;99791.47;5087119;28;8860;-76
2022/07/20 01:29:14;;;;;;;;;11.60;11.60;;;;;24.98;30.34;99801.28;5095358;28;8817;-74
2022/07/20 01:31:43;;;;;;;;;13.20;13.20;;;;;24.98;29.99;99793.28;5072618;28;8891;-76
2022/07/20 01:34:12;;;;;;;;;9.20;9.20;;;;;24.97;30.05;99786.19;5107354;28;8972;-76
2022/07/20 01:36:41;;;;;;;;;9.80;9.80;;;;;24.97;30.03;99788.88;5108577;28;8892;-76
2022/07/20 01:39:10;;;;;;;;;10.40;10.40;;;;;24.95;30.72;99786.28;5108112;28;8856;-76
2022/07/20 01:41:39;;;;;;;;;9.80;9.40;;;;;24.95;29.43;99785.44;5073597;28;8833;-77
2022/07/20 01:44:08;;;;;;;;;12.80;11.40;;;;;24.93;29.78;99788.19;5110674;28;8913;-75
2022/07/20 01:46:36;;;;;;;;;15.60;14.00;;;;;24.92;29.89;99790.97;5089309;28;8839;-75
2022/07/20 01:49:05;;;;;;;;;11.00;10.80;;;;;24.90;29.88;99789.22;5091856;28;8886;-76
2022/07/20 01:51:34;;;;;;;;;11.40;10.20;;;;;24.87;30.03;99789.38;5055916;28;8839;-77
2022/07/20 01:54:02;;;;;;;;;11.00;10.40;;;;;24.85;29.82;99787.75;5090539;28;8847;-78
2022/07/20 01:56:32;;;;;;;;;12.20;10.80;;;;;24.82;30.62;99794.13;5091634;28;8872;-76
2022/07/20 01:59:01;;;;;;;;;11.20;10.40;;;;;24.83;30.87;99798.50;5090631;28;9701;-75
2022/07/20 02:01:29;;;;;;;;;11.60;11.00;;;;;24.84;31.04;99788.69;5091119;28;8871;-75
2022/07/20 02:03:59;;;;;;;;;11.00;10.00;;;;;24.80;31.89;99790.69;5073111;28;8835;-75
2022/07/20 02:06:28;;;;;;;;;15.80;15.20;;;;;24.80;32.50;99796.03;5090272;28;8843;-76
2022/07/20 02:08:57;;;;;;;;;10.80;10.80;;;;;24.76;32.38;99794.44;5091119;28;8848;-75
2022/07/20 02:11:25;;;;;;;;;10.80;10.40;;;;;24.74;32.92;99782.16;5091437;28;8964;-75
2022/07/20 02:13:55;;;;;;;;;12.40;11.60;;;;;24.70;32.70;99790.31;5091704;28;8835;-77
2022/07/20 02:16:24;;;;;;;;;12.60;12.40;;;;;24.67;32.93;99787.00;5103285;28;8841;-77
2022/07/20 02:18:55;;;;;;;;;11.20;10.40;;;;;24.63;32.75;99782.75;5109946;27;8853;-75
2022/07/20 02:21:26;;;;;;;;;13.20;12.00;;;;;24.59;32.39;99774.03;5077749;28;8871;-75
2022/07/20 02:23:54;;;;;;;;;11.20;10.60;;;;;24.55;32.13;99775.16;5069039;28;8895;-76
2022/07/20 02:26:23;;;;;;;;;11.80;9.80;;;;;24.54;30.78;99783.25;5087637;28;8990;-80
2022/07/20 02:28:53;;;;;;;;;11.20;10.80;;;;;24.48;31.12;99781.75;5074864;28;8994;-79
2022/07/20 02:31:24;;;;;;;;;11.40;11.20;;;;;24.47;31.35;99786.22;5075699;28;8859;-78
2022/07/20 02:34:01;;;;;;;;;12.20;10.60;;;;;24.45;30.31;99776.59;5035171;28;9066;-78
2022/07/20 02:36:29;;;;;;;;;11.00;11.00;;;;;24.41;30.08;99781.22;5068131;28;9696;-78
2022/07/20 02:38:58;;;;;;;;;14.40;14.40;;;;;24.37;30.42;99782.34;5052455;28;8853;-76
2022/07/20 02:41:27;;;;;;;;;11.80;11.80;;;;;24.37;30.80;99785.00;5096414;28;8883;-77
2022/07/20 02:43:56;;;;;;;;;13.80;12.00;;;;;24.37;31.09;99785.00;5059316;28;8881;-78
2022/07/20 02:46:27;;;;;;;;;16.00;13.20;;;;;24.37;30.68;99777.00;5056466;28;8868;-78
2022/07/20 02:48:55;;;;;;;;;11.40;11.40;;;;;24.31;30.59;99780.00;5063030;28;8837;-79
2022/07/20 02:51:24;;;;;;;;;10.80;10.80;;;;;24.33;31.14;99778.97;5062461;28;9687;-77
2022/07/20 02:53:52;;;;;;;;;12.80;12.20;;;;;24.31;30.34;99780.00;5072302;28;8845;-81
2022/07/20 02:56:21;;;;;;;;;13.60;11.20;;;;;24.33;30.17;99786.97;5103852;28;9539;-78
2022/07/20 02:58:55;;;;;;;;;9.40;9.40;;;;;24.34;30.32;99779.84;5110362;28;8853;-78
2022/07/20 03:01:24;;;;;;;;;10.80;10.40;;;;;24.31;30.33;99777.34;5112041;28;8860;-77
2022/07/20 03:03:54;;;;;;;;;11.00;10.40;;;;;24.30;30.16;99788.94;5093637;28;8868;-76
2022/07/20 03:06:22;;;;;;;;;11.20;9.60;;;;;24.27;30.21;99784.66;5106356;28;8936;-79
2022/07/20 03:08:51;;;;;;;;;11.80;11.00;;;;;24.31;30.45;99788.00;5090050;28;8974;-79
2022/07/20 03:11:20;;;;;;;;;11.60;11.60;;;;;24.27;30.50;99789.97;5100059;28;8868;-78
2022/07/20 03:13:49;;;;;;;;;10.80;10.60;;;;;24.19;30.58;99791.31;5110183;28;8867;-78
2022/07/20 03:16:17;;;;;;;;;15.20;13.80;;;;;24.20;30.90;99787.72;5093037;28;8998;-76
2022/07/20 03:18:46;;;;;;;;;29.00;28.00;;;;;24.07;31.27;99793.69;5062526;28;8883;-78
2022/07/20 03:21:16;;;;;;;;;16.00;13.20;;;;;24.19;31.67;99802.81;5111683;28;8865;-78
2022/07/20 03:23:45;;;;;;;;;11.60;11.60;;;;;24.25;31.32;99802.53;5062097;28;8925;-78
2022/07/20 03:26:13;;;;;;;;;12.80;12.80;;;;;24.25;31.72;99799.84;5090414;28;8857;-77
2022/07/20 03:28:42;;;;;;;;;11.40;10.60;;;;;24.31;32.23;99796.88;5085910;28;8898;-78
2022/07/20 03:31:11;;;;;;;;;13.00;12.20;;;;;24.36;31.97;99796.59;5030495;28;8857;-77
2022/07/20 03:33:40;;;;;;;;;13.80;13.40;;;;;24.40;31.87;99798.16;5014523;28;9023;-77
2022/07/20 03:36:09;;;;;;;;;9.40;9.40;;;;;24.44;31.83;99804.19;5030708;28;9651;-78
2022/07/20 03:38:39;;;;;;;;;8.80;8.60;;;;;24.49;31.60;99802.13;5036155;28;8839;-78
2022/07/20 03:41:15;;;;;;;;;13.80;11.60;;;;;24.56;31.94;99805.38;5047403;28;9012;-77
2022/07/20 03:43:44;;;;;;;;;9.00;9.00;;;;;24.59;32.06;99803.38;5047214;28;8854;-79
2022/07/20 03:46:17;;;;;;;;;13.20;13.20;;;;;24.65;32.45;99800.41;5064076;28;8844;-79
2022/07/20 03:48:46;;;;;;;;;9.40;9.20;;;;;24.60;32.09;99805.13;5067072;28;8874;-79
2022/07/20 03:51:15;;;;;;;;;14.20;12.20;;;;;24.63;32.58;99801.41;5063954;28;8867;-79
2022/07/20 03:53:45;;;;;;;;;14.40;12.80;;;;;24.70;32.27;99808.13;5048744;28;8854;-80
2022/07/20 03:56:14;;;;;;;;;11.00;11.00;;;;;24.76;31.93;99807.78;5048091;28;8859;-79
2022/07/20 03:58:43;;;;;;;;;27.00;24.25;;;;;24.82;31.44;99803.94;5009749;28;8856;-78
2022/07/20 04:01:11;;;;;;;;;14.20;14.20;;;;;24.83;30.97;99816.34;5026572;28;8867;-79
2022/07/20 04:03:40;;;;;;;;;10.40;10.40;;;;;24.78;31.06;99810.38;5041407;28;8848;-79
2022/07/20 04:06:08;;;;;;;;;10.40;9.80;;;;;24.88;31.23;99812.47;5032886;28;8859;-78
2022/07/20 04:08:37;;;;;;;;;13.20;13.20;;;;;24.97;30.93;99813.78;5085118;28;8855;-79
2022/07/20 04:11:07;;;;;;;;;11.20;10.80;;;;;25.09;31.20;99823.75;5073884;28;8965;-78
2022/07/20 04:13:36;;;;;;;;;12.40;11.80;;;;;25.17;31.77;99819.78;5041617;28;8839;-79
2022/07/20 04:16:05;;;;;;;;;30.25;29.75;;;;;25.25;32.59;99815.75;5058145;28;8848;-78
2022/07/20 04:18:34;;;;;;;;;29.50;27.75;;;;;25.35;31.85;99828.56;5045777;28;8879;-79
2022/07/20 04:21:02;;;;;;;;;12.40;12.20;;;;;25.44;32.17;99817.38;4998383;28;10117;-79
2022/07/20 04:23:31;;;;;;;;;69.00;55.33;;;;;25.54;32.19;99826.59;5064469;28;9654;-78
2022/07/20 04:26:00;;;;;;;;;24.25;22.75;;;;;25.63;32.57;99826.03;5031650;28;10362;-78
2022/07/20 04:28:30;;;;;;;;;16.40;15.60;;;;;25.73;32.54;99833.50;5046578;28;8888;-79
2022/07/20 04:30:58;;;;;;;;;21.60;21.40;;;;;25.72;31.95;99831.78;5062731;28;8877;-79
2022/07/20 04:33:27;;;;;;;;;25.75;24.50;;;;;25.80;32.08;99835.75;5029661;28;8943;-78
2022/07/20 04:35:56;;;;;;;;;13.00;13.00;;;;;25.86;32.31;99839.88;5038625;28;8857;-79
2022/07/20 04:38:24;;;;;;;;;13.00;11.20;;;;;25.84;31.54;99837.28;5028902;28;8872;-79
2022/07/20 04:40:53;;;;;;;;;11.80;11.80;;;;;25.77;30.53;99838.59;5045669;28;8841;-79
2022/07/20 04:43:21;;;;;;;;;19.25;18.50;;;;;25.67;32.04;99840.94;5081354;28;8864;-81
2022/07/20 04:45:51;;;;;;;;;15.75;14.50;;;;;25.67;32.98;99846.28;5066165;28;8840;-79
2022/07/20 04:48:25;;;;;;;;;17.00;14.00;;;;;25.37;33.57;99845.34;5065896;28;9661;-80
2022/07/20 04:50:54;;;;;;;;;15.40;14.40;;;;;24.94;33.66;99853.09;5106272;28;8907;-79
2022/07/20 04:53:22;;;;;;;;;13.40;12.60;;;;;24.95;32.93;99842.31;5107536;28;8949;-81
2022/07/20 04:55:51;;;;;;;;;16.40;16.40;;;;;24.84;33.66;99850.94;5109161;28;8868;-79
2022/07/20 04:58:20;;;;;;;;;17.25;17.25;;;;;24.93;33.65;99851.34;5089468;28;8827;-78
2022/07/20 05:00:56;;;;;;;;;18.75;18.75;;;;;25.09;32.83;99844.25;5076452;28;8847;-79
2022/07/20 05:03:25;;;;;;;;;18.50;18.50;;;;;25.28;32.17;99846.75;5072203;28;8832;-81
2022/07/20 05:05:54;;;;;;;;;19.00;17.25;;;;;25.24;31.60;99855.91;5089926;28;8848;-82
2022/07/20 05:08:22;;;;;;;;;12.40;12.40;;;;;25.37;30.39;99851.59;5089662;28;9630;-82
2022/07/20 05:10:51;;;;;;;;;17.20;16.40;;;;;25.37;31.08;99851.59;5081679;28;8915;-82
2022/07/20 05:13:19;;;;;;;;;16.60;16.60;;;;;25.31;31.30;99862.59;5052698;28;8830;-79
2022/07/20 05:15:48;;;;;;;;;20.60;18.80;;;;;25.24;31.34;99859.41;5102619;28;8850;-80
2022/07/20 05:18:18;;;;;;;;;15.00;15.00;;;;;25.47;30.78;99857.25;5039629;28;8865;-79
2022/07/20 05:20:47;;;;;;;;;17.75;17.75;;;;;25.62;30.72;99863.53;5089573;28;8841;-81
2022/07/20 05:23:15;;;;;;;;;12.80;12.80;;;;;25.82;30.85;99870.34;5090043;28;8865;-82
2022/07/20 05:25:44;;;;;;;;;14.60;14.00;;;;;26.01;30.19;99870.16;5089776;28;8842;-80
2022/07/20 05:28:17;;;;;;;;;13.80;12.40;;;;;26.11;29.82;99870.50;5070936;28;8891;-78
2022/07/20 05:30:46;;;;;;;;;11.00;11.00;;;;;26.31;30.01;99870.13;5088888;28;8888;-79
2022/07/20 05:33:15;;;;;;;;;15.25;13.00;;;;;26.47;29.78;99877.25;5072585;28;8854;-79
2022/07/20 05:35:45;;;;;;;;;12.60;12.60;;;;;26.53;29.71;99874.19;5091817;28;8877;-80
2022/07/20 05:38:14;;;;;;;;;15.40;14.60;;;;;26.55;30.34;99878.47;5093564;28;8848;-81
2022/07/20 05:40:43;;;;;;;;;14.25;13.25;;;;;26.23;31.12;99880.44;5078428;28;8861;-81
2022/07/20 05:43:11;;;;;;;;;14.60;13.60;;;;;26.05;31.09;99882.41;5090480;27;9002;-80
2022/07/20 05:45:40;;;;;;;;;15.20;14.60;;;;;25.63;32.17;99884.81;5105825;28;8867;-79
2022/07/20 05:48:16;;;;;;;;;16.20;15.80;;;;;25.59;31.07;99883.25;5109703;28;8841;-78
2022/07/20 05:50:46;;;;;;;;;12.00;12.00;;;;;25.67;31.75;99880.13;5091745;28;8835;-68
2022/07/20 05:53:15;;;;;;;;;22.00;20.50;;;;;25.28;32.51;99893.00;5090688;28;8894;-67
2022/07/20 05:55:46;;;;;;;;;14.75;14.75;;;;;25.08;32.28;99887.88;5091353;28;8875;-67
2022/07/20 05:58:15;;;;;;;;;16.25;16.00;;;;;25.18;31.52;99886.44;5099009;28;8845;-70
2022/07/20 06:00:43;;;;;;;;;13.80;13.20;;;;;24.96;32.50;99891.22;5110037;28;8864;-66
2022/07/20 06:03:12;;;;;;;;;14.80;13.60;;;;;25.08;32.56;99893.22;5110205;28;9579;-66
2022/07/20 06:05:40;;;;;;;;;20.00;19.25;;;;;25.31;31.93;99891.94;5110596;28;8937;-70
2022/07/20 06:08:10;;;;;;;;;13.20;13.20;;;;;25.74;31.86;99894.00;5110009;28;8868;-69
2022/07/20 06:10:39;;;;;;;;;12.20;11.80;;;;;26.09;31.26;99894.66;5104055;28;8867;-67
2022/07/20 06:13:08;;;;;;;;;16.60;13.20;;;;;26.46;31.10;99892.41;5106034;28;8849;-67
2022/07/20 06:15:39;;;;;;;;;15.60;14.40;;;;;26.78;29.81;99890.44;5111316;28;8842;-67
2022/07/20 06:18:08;;;;;;;;;16.40;16.40;;;;;26.89;29.11;99888.94;5094347;28;8865;-67
2022/07/20 06:20:37;;;;;;;;;17.60;16.40;;;;;27.09;29.79;99887.66;5103494;28;9612;-68
2022/07/20 06:23:06;;;;;;;;;12.25;9.50;;;;;27.23;29.73;99893.84;5073949;28;8869;-69
2022/07/20 06:25:35;;;;;;;;;15.60;15.40;;;;;27.35;29.42;99899.41;5106853;28;8902;-66
2022/07/20 06:28:04;;;;;;;;;13.00;12.80;;;;;27.42;29.71;99888.19;5108343;28;8841;-67
2022/07/20 06:30:34;;;;;;;;;16.00;15.75;;;;;27.57;29.82;99890.84;5109602;28;8856;-69
2022/07/20 06:33:02;;;;;;;;;14.00;14.00;;;;;27.58;29.30;99896.09;5109274;28;8863;-66
2022/07/20 06:35:31;;;;;;;;;16.25;15.50;;;;;27.73;29.09;99896.03;5072643;28;8852;-67
2022/07/20 06:37:59;;;;;;;;;14.00;12.00;;;;;27.85;29.37;99897.91;5091199;28;9020;-78
2022/07/20 06:40:28;;;;;;;;;13.00;13.00;;;;;27.98;29.34;99893.47;5110914;28;8821;-78
2022/07/20 06:42:58;;;;;;;;;17.20;16.20;;;;;28.16;29.53;99895.88;5110803;28;8959;-77
2022/07/20 06:45:27;;;;;;;;;18.25;16.00;;;;;28.15;28.77;99903.06;5111708;28;8861;-77
2022/07/20 06:47:55;;;;;;;;;15.80;15.00;;;;;28.25;28.73;99903.28;5118030;28;8848;-76
2022/07/20 06:50:24;;;;;;;;;16.00;14.80;;;;;28.22;28.26;99899.97;5132599;27;8847;-76
2022/07/20 06:52:52;;;;;;;;;16.00;16.00;;;;;28.34;28.15;99897.31;5094020;28;8959;-76
2022/07/20 06:55:22;;;;;;;;;15.75;15.00;;;;;28.43;28.32;99900.31;5082842;28;8875;-76
2022/07/20 06:57:50;;;;;;;;;22.75;22.25;;;;;27.67;29.52;99894.63;5109481;28;10130;-78
2022/07/20 07:00:20;;;;;;;;;15.00;14.50;;;;;27.60;29.58;99907.59;5076654;28;8883;-76
2022/07/20 07:02:49;;;;;;;;;18.75;18.75;;;;;27.35;30.10;99908.34;5091941;28;8875;-77
2022/07/20 07:05:18;;;;;;;;;19.25;18.25;;;;;27.19;30.33;99907.56;5090384;28;8863;-77
2022/07/20 07:07:46;;;;;;;;;15.75;15.75;;;;;27.59;30.00;99908.53;5090300;28;8832;-77
2022/07/20 07:10:15;;;;;;;;;15.40;15.40;;;;;27.98;29.08;99898.84;5067762;28;8860;-76
2022/07/20 07:12:43;;;;;;;;;15.00;15.00;;;;;28.38;28.91;99897.94;5067729;28;8840;-77
2022/07/20 07:15:12;;;;;;;;;17.50;17.50;;;;;28.18;28.44;99896.63;5050717;28;8939;-75
2022/07/20 07:17:42;;;;;;;;;14.40;14.40;;;;;28.01;28.40;99900.44;5035162;28;8851;-78
2022/07/20 07:20:11;;;;;;;;;16.60;15.60;;;;;27.92;28.33;99901.94;5051491;28;8840;-76
2022/07/20 07:22:40;;;;;;;;;16.80;16.60;;;;;28.04;28.34;99899.41;5051697;28;9069;-78
2022/07/20 07:25:09;;;;;;;;;15.80;15.80;;;;;27.98;28.73;99896.16;5034353;28;9083;-76
2022/07/20 07:27:38;;;;;;;;;15.60;15.60;;;;;27.72;28.51;99895.19;5068974;28;8826;-77
2022/07/20 07:30:08;;;;;;;;;11.60;11.60;;;;;27.57;28.88;99897.06;5070656;28;9745;-77
2022/07/20 07:32:36;;;;;;;;;17.00;16.20;;;;;27.92;28.29;99899.25;5087750;28;9019;-78
2022/07/20 07:35:07;;;;;;;;;12.80;12.80;;;;;27.73;28.32;99902.28;5086948;28;8830;-75
2022/07/20 07:37:39;;;;;;;;;11.00;11.00;;;;;27.92;27.79;99899.25;5087234;28;8880;-77
2022/07/20 07:40:09;;;;;;;;;9.20;9.20;;;;;28.32;27.45;99891.19;5086846;28;9653;-77
2022/07/20 07:42:37;;;;;;;;;17.00;17.00;;;;;28.53;27.58;99893.38;5109815;28;8837;-78
2022/07/20 07:45:07;;;;;;;;;15.00;15.00;;;;;28.82;26.99;99895.81;5057623;28;8837;-78
2022/07/20 07:47:36;;;;;;;;;11.00;10.60;;;;;29.07;26.73;99893.09;5108789;28;8845;-77
2022/07/20 07:50:07;;;;;;;;;17.00;17.00;;;;;29.42;26.52;99892.41;5109739;28;8845;-76
2022/07/20 07:52:36;;;;;;;;;14.80;14.20;;;;;29.66;26.08;99887.03;5073943;28;8848;-77
2022/07/20 07:55:23;;;;;;;;;15.20;14.20;;;;;29.42;25.81;99888.84;5091554;28;8821;-77
2022/07/20 07:57:51;;;;;;;;;12.00;12.00;;;;;29.80;26.02;99886.03;5091109;27;9656;-78
2022/07/20 08:00:20;;;;;;;;;12.60;12.20;;;;;30.06;25.22;99885.88;5108239;28;8877;-78
2022/07/20 08:02:49;;;;;;;;;17.20;16.40;;;;;29.96;25.66;99884.84;5108581;28;8845;-77
2022/07/20 08:05:19;;;;;;;;;17.00;15.00;;;;;30.27;25.70;99880.69;5108878;28;9002;-76
2022/07/20 08:07:48;;;;;;;;;13.80;13.00;;;;;30.52;25.11;99883.19;5110308;28;8829;-76
2022/07/20 08:10:17;;;;;;;;;17.00;17.00;;;;;30.75;24.63;99877.81;5103055;28;9637;-79
2022/07/20 08:12:46;;;;;;;;;14.25;13.25;;;;;30.05;25.73;99884.16;5088257;28;8876;-76
2022/07/20 08:15:15;;;;;;;;;14.00;11.80;;;;;29.80;25.48;99879.78;5088362;28;8863;-75
2022/07/20 08:17:45;;;;;;;;;12.80;12.00;;;;;29.72;25.55;99880.34;5089437;28;8936;-77
2022/07/20 08:20:14;;;;;;;;;9.60;9.60;;;;;29.71;23.84;99875.91;5088908;28;8890;-78
2022/07/20 08:22:44;;;;;;;;;9.80;9.00;;;;;29.96;24.04;99882.16;5068955;28;8873;-76
2022/07/20 08:25:13;;;;;;;;;8.60;8.60;;;;;30.33;24.22;99877.53;5069321;28;8880;-74
2022/07/20 08:27:42;;;;;;;;;10.60;10.60;;;;;30.66;24.05;99878.53;5086733;28;8866;-78
2022/07/20 08:30:11;;;;;;;;;9.80;9.80;;;;;30.93;23.87;99880.91;5070328;28;8860;-77
2022/07/20 08:33:00;;;;;;;;;9.80;9.80;;;;;31.23;23.65;99879.41;5087285;28;8930;-77
2022/07/20 08:35:28;;;;;;;;;10.00;10.00;;;;;31.44;23.06;99874.09;5069790;28;8955;-78
2022/07/20 08:37:59;;;;;;;;;10.40;10.40;;;;;31.65;22.89;99875.03;5052522;28;8858;-77
2022/07/20 08:40:28;;;;;;;;;12.80;11.80;;;;;31.73;22.86;99869.00;5036332;28;8872;-77
2022/07/20 08:42:57;;;;;;;;;11.80;11.80;;;;;31.64;23.27;99873.31;5069164;28;8997;-76
2022/07/20 08:45:26;;;;;;;;;11.60;11.60;;;;;31.55;23.43;99874.09;5085742;28;8861;-76
2022/07/20 08:47:57;;;;;;;;;12.75;12.50;;;;;31.22;24.92;99869.63;5086074;28;9670;-76
2022/07/20 08:50:28;;;;;;;;;14.20;14.20;;;;;31.33;25.19;99869.59;5069618;28;8885;-78
2022/07/20 08:52:59;;;;;;;;;15.50;13.25;;;;;31.03;25.35;99872.94;5087874;28;8834;-77
2022/07/20 08:55:28;;;;;;;;;12.20;12.20;;;;;30.93;24.51;99870.16;5091548;28;8998;-78
2022/07/20 08:57:57;;;;;;;;;12.60;12.60;;;;;31.28;24.48;99866.41;5108052;28;8825;-76
2022/07/20 09:00:26;;;;;;;;;11.00;10.60;;;;;30.99;24.98;99866.09;5073082;28;8865;-76
2022/07/20 09:02:56;;;;;;;;;10.40;10.40;;;;;31.32;24.74;99862.47;5090417;28;8925;-75
2022/07/20 09:05:28;;;;;;;;;13.00;13.00;;;;;31.26;24.09;99858.44;5108228;28;8924;-76
2022/07/20 09:07:59;;;;;;;;;11.80;11.60;;;;;31.43;24.06;99861.59;5109461;28;9072;-78
2022/07/20 09:10:29;;;;;;;;;11.60;10.40;;;;;31.70;23.52;99861.16;5109755;28;8849;-75
2022/07/20 09:13:00;;;;;;;;;11.00;10.60;;;;;31.83;22.72;99851.06;5090912;28;8973;-77
2022/07/20 09:15:36;;;;;;;;;9.00;8.80;;;;;31.95;21.72;99853.69;5109238;28;8833;-78
2022/07/20 09:18:14;;;;;;;;;9.20;8.40;;;;;32.14;22.09;99848.47;5089006;28;8859;-78
2022/07/20 09:20:45;;;;;;;;;8.00;7.60;;;;;32.20;21.44;99853.34;5089316;28;8816;-78
2022/07/20 09:23:20;;;;;;;;;7.60;7.60;;;;;32.41;21.25;99841.66;5106004;28;8893;-77
2022/07/20 09:25:57;;;;;;;;;12.00;10.80;;;;;32.32;21.20;99845.16;5106263;28;8930;-76
2022/07/20 09:28:36;;;;;;;;;8.60;6.80;;;;;31.95;20.73;99851.88;5089408;28;8886;-77
2022/07/20 09:31:11;;;;;;;;;7.00;6.60;;;;;32.14;20.58;99835.00;5085241;28;8861;-78
2022/07/20 09:33:40;;;;;;;;;8.00;8.00;;;;;31.93;20.20;99845.75;5051934;28;8849;-77
2022/07/20 09:36:09;;;;;;;;;8.40;8.40;;;;;31.94;20.16;99846.59;5086044;28;8846;-80
2022/07/20 09:38:41;;;;;;;;;7.60;7.60;;;;;32.28;19.91;99835.63;5085859;28;8830;-77
2022/07/20 09:41:23;;;;;;;;;6.80;6.80;;;;;32.10;19.23;99841.63;5086253;28;8854;-77
2022/07/20 09:43:52;;;;;;;;;9.20;9.20;;;;;32.33;19.95;99836.94;5085720;28;8861;-77
2022/07/20 09:46:23;;;;;;;;;9.80;9.80;;;;;32.30;19.62;99833.66;5069217;28;8858;-76
2022/07/20 09:48:53;;;;;;;;;9.00;8.00;;;;;31.78;20.29;99838.97;5092622;28;8947;-77
2022/07/20 09:51:25;;;;;;;;;7.80;7.80;;;;;31.58;19.95;99835.25;5089037;28;8823;-78
2022/07/20 09:54:04;;;;;;;;;9.40;9.20;;;;;31.22;20.12;99831.88;5106509;28;8898;-77
2022/07/20 09:56:33;;;;;;;;;9.60;9.00;;;;;31.14;20.43;99832.53;5106062;28;8950;-77
2022/07/20 09:59:05;;;;;;;;;8.00;8.00;;;;;30.71;21.31;99828.72;5088917;28;8990;-77
2022/07/20 10:01:36;;;;;;;;;9.20;9.20;;;;;31.17;21.31;99823.31;5056567;28;8857;-78
2022/07/20 10:04:07;;;;;;;;;8.80;8.40;;;;;31.47;20.84;99820.84;5108649;28;8841;-76
2022/07/20 10:06:37;;;;;;;;;9.00;9.00;;;;;31.77;21.37;99816.50;5112008;28;8849;-77
2022/07/20 10:09:07;;;;;;;;;7.40;7.20;;;;;32.00;20.98;99809.13;5093065;28;8887;-77
2022/07/20 10:11:37;;;;;;;;;9.80;9.40;;;;;32.14;20.67;99812.56;5112035;27;9010;-77
2022/07/20 10:14:07;;;;;;;;;9.40;9.00;;;;;32.36;20.79;99815.06;5111228;28;8867;-79
2022/07/20 10:16:38;;;;;;;;;8.40;8.00;;;;;32.41;20.57;99809.28;5096790;28;8952;-76
2022/07/20 10:19:08;;;;;;;;;8.40;8.40;;;;;32.50;19.94;99808.47;5068444;28;9585;-77
2022/07/20 10:21:40;;;;;;;;;8.80;8.80;;;;;32.52;19.86;99803.78;5069116;28;8859;-76
2022/07/20 10:24:18;;;;;;;;;10.00;10.00;;;;;32.20;19.93;99806.63;5035662;28;8839;-76
2022/07/20 10:26:49;;;;;;;;;7.60;6.60;;;;;31.60;20.42;99812.53;5051986;28;8955;-75
2022/07/20 10:29:29;;;;;;;;;8.00;8.00;;;;;31.35;20.51;99804.78;5052374;28;8907;-76
2022/07/20 10:32:11;;;;;;;;;7.80;6.60;;;;;31.27;20.09;99802.72;5068891;28;8930;-76
2022/07/20 10:34:41;;;;;;;;;7.80;7.80;;;;;31.25;20.21;99799.31;5068833;28;8856;-75
2022/07/20 10:37:27;;;;;;;;;7.80;7.80;;;;;31.00;20.53;99808.53;5051822;28;8847;-76
2022/07/20 10:40:12;;;;;;;;;7.80;7.80;;;;;30.89;20.76;99798.63;5031971;28;8849;-77
2022/07/20 10:42:42;;;;;;;;;7.80;7.80;;;;;31.32;20.75;99807.72;5031494;28;8850;-76
2022/07/20 10:45:29;;;;;;;;;5.80;5.80;;;;;30.94;20.28;99801.81;5031405;28;8858;-77
2022/07/20 10:48:01;;;;;;;;;7.60;7.40;;;;;31.08;20.79;99801.56;5048676;28;8838;-76
2022/07/20 10:50:37;;;;;;;;;8.00;7.40;;;;;31.40;20.98;99806.13;5065977;28;8928;-77
2022/07/20 10:53:37;;;;;;;;;8.60;7.60;;;;;31.72;20.96;99797.19;5103359;28;8884;-77
2022/07/20 10:56:11;;;;;;;;;5.00;5.00;;;;;32.19;21.49;99789.56;5111048;28;8980;-77
2022/07/20 10:58:43;;;;;;;;;9.80;8.20;;;;;32.52;20.09;99794.84;5110721;28;8833;-78
2022/07/20 11:01:15;;;;;;;;;10.20;8.80;;;;;32.55;20.02;99792.72;5110428;28;8833;-77
2022/07/20 11:03:46;;;;;;;;;10.00;9.20;;;;;32.80;21.01;99787.88;5109111;28;8849;-78
2022/07/20 11:06:18;;;;;;;;;10.60;10.60;;;;;33.10;20.53;99791.47;5092264;28;9620;-77
2022/07/20 11:08:51;;;;;;;;;9.40;9.40;;;;;33.17;19.36;99777.28;5109459;28;9613;-77
2022/07/20 11:11:26;;;;;;;;;9.20;8.60;;;;;32.75;19.80;99784.72;5109243;28;8976;-76
2022/07/20 11:13:55;;;;;;;;;11.00;10.00;;;;;32.38;20.07;99785.25;5091855;28;8864;-77
2022/07/20 11:16:26;;;;;;;;;7.40;7.00;;;;;32.68;20.41;99779.00;5108718;28;8979;-78
2022/07/20 11:18:58;;;;;;;;;10.75;10.25;;;;;33.03;19.93;99774.97;5074160;28;8860;-77
2022/07/20 11:21:31;;;;;;;;;10.00;10.00;;;;;33.10;19.76;99768.00;5128351;28;9567;-77
2022/07/20 11:24:06;;;;;;;;;11.40;11.40;;;;;32.58;19.91;99768.16;5144098;27;8971;-75
2022/07/20 11:26:36;;;;;;;;;11.25;11.25;;;;;32.82;19.92;99761.56;5128819;28;8841;-77
2022/07/20 11:29:04;;;;;;;;;6.75;6.75;;;;;32.99;20.01;99766.28;5128998;28;8910;-78
2022/07/20 11:31:33;;;;;;;;;9.40;9.40;;;;;32.76;19.67;99762.97;5115029;28;8853;-78
2022/07/20 11:34:02;;;;;;;;;8.80;8.80;;;;;32.64;20.28;99758.66;5112802;28;8865;-78
2022/07/20 11:36:34;;;;;;;;;10.40;10.40;;;;;32.68;20.03;99753.84;5111009;28;8861;-78
2022/07/20 11:39:06;;;;;;;;;8.20;8.20;;;;;32.99;19.55;99755.47;5109475;28;8887;-79
2022/07/20 11:41:45;;;;;;;;;9.80;9.80;;;;;32.68;19.92;99751.97;5111063;28;9614;-79
2022/07/20 11:44:20;;;;;;;;;13.00;11.50;;;;;32.85;20.05;99753.16;5110591;28;8860;-77
2022/07/20 11:46:50;;;;;;;;;9.20;9.20;;;;;33.03;19.50;99746.09;5108836;28;8841;-78